createdAt,value
2018-07-14T00:01:19.039Z,6.40
2018-07-14T00:03:46.495Z,6.40
2018-07-14T00:06:13.928Z,6.17
2018-07-14T00:08:41.334Z,5.80
2018-07-14T00:11:09.267Z,6.27
2018-07-14T00:13:36.666Z,6.17
2018-07-14T00:16:04.371Z,5.73
2018-07-14T00:18:31.810Z,6.47
2018-07-14T00:20:59.296Z,6.67
2018-07-14T00:23:26.759Z,6.33
2018-07-14T00:25:59.586Z,6.10
2018-07-14T00:28:27.269Z,6.30
2018-07-14T00:30:54.675Z,6.03
2018-07-14T00:33:22.105Z,6.50
2018-07-14T00:35:50.216Z,6.30
2018-07-14T00:38:17.594Z,6.30
2018-07-14T00:40:45.154Z,6.40
2018-07-14T00:43:12.851Z,6.40
2018-07-14T00:45:40.279Z,6.23
2018-07-14T00:48:07.848Z,6.50
2018-07-14T00:50:35.532Z,6.57
2018-07-14T00:53:03.291Z,6.33
2018-07-14T00:55:31.399Z,6.90
2018-07-14T00:57:58.771Z,6.17
2018-07-14T01:00:26.271Z,6.70
2018-07-14T01:02:53.766Z,6.03
2018-07-14T01:05:21.732Z,6.50
2018-07-14T01:07:49.927Z,6.20
2018-07-14T01:10:17.355Z,6.80
2018-07-14T01:12:44.787Z,6.40
2018-07-14T01:15:13.179Z,6.47
2018-07-14T01:17:41.192Z,6.50
2018-07-14T01:20:09.621Z,6.73
2018-07-14T01:22:37.875Z,6.60
2018-07-14T01:25:05.735Z,6.17
2018-07-14T01:27:33.341Z,6.67
2018-07-14T01:30:00.771Z,6.20
2018-07-14T01:32:28.190Z,6.77
2018-07-14T01:34:55.588Z,6.80
2018-07-14T01:37:23.039Z,6.53
2018-07-14T01:39:50.444Z,6.40
2018-07-14T01:42:17.827Z,6.87
2018-07-14T01:44:46.031Z,7.10
2018-07-14T01:47:14.431Z,6.07
2018-07-14T01:49:41.883Z,6.70
2018-07-14T01:52:09.364Z,7.00
2018-07-14T01:54:36.784Z,6.40
2018-07-14T01:57:04.235Z,6.77
2018-07-14T01:59:31.691Z,6.67
2018-07-14T02:01:59.151Z,5.77
2018-07-14T02:04:26.551Z,6.40
2018-07-14T02:06:54.069Z,6.37
2018-07-14T02:09:21.530Z,6.53
2018-07-14T02:11:49.066Z,6.70
2018-07-14T02:14:16.490Z,7.13
2018-07-14T02:16:43.977Z,6.93
2018-07-14T02:19:11.399Z,6.80
2018-07-14T02:21:38.773Z,6.90
2018-07-14T02:24:06.296Z,7.00
2018-07-14T02:26:33.716Z,6.90
2018-07-14T02:29:01.269Z,6.90
2018-07-14T02:31:28.723Z,6.87
2018-07-14T02:33:56.108Z,6.47
2018-07-14T02:36:23.536Z,7.00
2018-07-14T02:38:52.071Z,6.70
2018-07-14T02:41:19.479Z,6.67
2018-07-14T02:43:46.895Z,6.53
2018-07-14T02:46:14.355Z,6.37
2018-07-14T02:48:42.066Z,6.50
2018-07-14T02:51:09.967Z,7.03
2018-07-14T02:53:37.621Z,6.87
2018-07-14T02:56:05.049Z,6.83
2018-07-14T02:58:32.545Z,6.67
2018-07-14T03:01:01.081Z,6.90
2018-07-14T03:03:28.470Z,6.30
2018-07-14T03:05:56.017Z,6.03
2018-07-14T03:08:23.936Z,7.03
2018-07-14T03:10:51.324Z,6.10
2018-07-14T03:13:18.719Z,6.67
2018-07-14T03:15:46.376Z,6.50
2018-07-14T03:18:13.760Z,7.30
2018-07-14T03:20:41.477Z,7.27
2018-07-14T03:23:09.355Z,7.20
2018-07-14T03:25:38.143Z,6.13
2018-07-14T03:28:05.851Z,6.80
2018-07-14T03:30:33.297Z,6.70
2018-07-14T03:33:00.703Z,6.57
2018-07-14T03:35:28.543Z,6.70
2018-07-14T03:37:56.304Z,6.80
2018-07-14T03:40:23.691Z,6.27
2018-07-14T03:42:51.131Z,6.57
2018-07-14T03:45:18.619Z,6.60
2018-07-14T03:47:46.659Z,6.90
2018-07-14T03:50:14.205Z,6.67
2018-07-14T03:52:41.612Z,6.97
2018-07-14T03:55:09.071Z,6.90
2018-07-14T03:57:36.807Z,7.23
2018-07-14T04:00:04.615Z,6.47
2018-07-14T04:02:32.693Z,6.37
2018-07-14T04:05:00.140Z,6.97
2018-07-14T04:07:28.466Z,6.43
2018-07-14T04:09:56.500Z,6.87
2018-07-14T04:12:23.995Z,6.97
2018-07-14T04:14:51.484Z,6.57
2018-07-14T04:17:18.995Z,6.70
2018-07-14T04:19:46.379Z,6.80
2018-07-14T04:22:13.870Z,6.50
2018-07-14T04:24:42.223Z,6.20
2018-07-14T04:27:09.691Z,5.47
2018-07-14T04:29:37.087Z,5.80
2018-07-14T04:32:05.236Z,5.57
2018-07-14T04:34:32.732Z,5.70
2018-07-14T04:37:01.392Z,5.73
2018-07-14T04:39:28.917Z,5.57
2018-07-14T04:41:56.564Z,5.60
2018-07-14T04:44:24.624Z,5.43
2018-07-14T04:46:52.034Z,5.53
2018-07-14T04:49:19.538Z,5.33
2018-07-14T04:51:48.075Z,5.50
2018-07-14T04:54:15.657Z,4.77
2018-07-14T04:56:43.752Z,5.73
2018-07-14T04:59:11.207Z,5.20
2018-07-14T05:01:38.708Z,5.20
2018-07-14T05:04:06.135Z,5.40
2018-07-14T05:06:33.603Z,5.27
2018-07-14T05:09:01.093Z,5.60
2018-07-14T05:11:28.480Z,4.90
2018-07-14T05:13:57.190Z,5.03
2018-07-14T05:16:25.131Z,5.10
2018-07-14T05:18:53.291Z,4.93
2018-07-14T05:21:20.792Z,5.10
2018-07-14T05:23:48.259Z,5.00
2018-07-14T05:26:15.651Z,5.10
2018-07-14T05:28:43.165Z,4.90
2018-07-14T05:31:10.623Z,5.10
2018-07-14T05:33:38.063Z,4.37
2018-07-14T05:36:05.436Z,4.77
2018-07-14T05:38:32.848Z,5.10
2018-07-14T05:41:00.269Z,5.00
2018-07-14T05:43:27.972Z,4.10
2018-07-14T05:45:55.371Z,4.83
2018-07-14T05:48:22.796Z,4.90
2018-07-14T05:50:50.179Z,4.40
2018-07-14T05:53:17.609Z,4.73
2018-07-14T05:55:44.999Z,4.97
2018-07-14T05:58:13.117Z,4.83
2018-07-14T06:00:40.514Z,4.93
2018-07-14T06:03:08.156Z,4.13
2018-07-14T06:05:36.548Z,4.40
2018-07-14T06:08:04.035Z,4.40
2018-07-14T06:10:32.148Z,4.30
2018-07-14T06:12:59.914Z,4.97
2018-07-14T06:15:27.611Z,4.80
2018-07-14T06:17:55.136Z,4.83
2018-07-14T06:20:23.512Z,4.83
2018-07-14T06:22:50.968Z,4.10
2018-07-14T06:25:18.651Z,4.50
2018-07-14T06:27:46.190Z,4.17
2018-07-14T06:30:13.623Z,4.47
2018-07-14T06:32:41.102Z,3.87
2018-07-14T06:35:08.492Z,4.33
2018-07-14T06:37:35.927Z,4.20
2018-07-14T06:40:03.717Z,4.60
2018-07-14T06:42:31.148Z,4.70
2018-07-14T06:44:59.289Z,4.50
2018-07-14T06:47:27.075Z,4.20
2018-07-14T06:49:55.148Z,4.60
2018-07-14T06:52:22.885Z,4.72
2018-07-14T06:54:50.285Z,4.87
2018-07-14T06:57:17.667Z,4.53
2018-07-14T06:59:45.219Z,4.55
2018-07-14T07:02:12.677Z,4.90
2018-07-14T07:04:41.039Z,4.20
2018-07-14T07:07:08.523Z,4.55
2018-07-14T07:09:36.564Z,4.67
2018-07-14T07:12:04.024Z,4.80
2018-07-14T07:14:31.558Z,4.47
2018-07-14T07:16:59.542Z,4.08
2018-07-14T07:19:26.945Z,3.80
2018-07-14T07:21:55.580Z,4.33
2018-07-14T07:24:23.143Z,3.67
2018-07-14T07:26:50.685Z,3.47
2018-07-14T07:29:18.384Z,3.30
2018-07-14T07:31:45.861Z,3.15
2018-07-14T07:34:13.596Z,3.40
2018-07-14T07:36:41.070Z,3.37
2018-07-14T07:39:08.587Z,3.12
2018-07-14T07:41:36.260Z,3.65
2018-07-14T07:44:03.749Z,3.55
2018-07-14T07:46:31.571Z,3.25
2018-07-14T07:48:59.268Z,3.52
2018-07-14T07:51:26.731Z,3.35
2018-07-14T07:53:54.133Z,3.40
2018-07-14T07:56:21.539Z,3.60
2018-07-14T07:58:49.202Z,3.77
2018-07-14T08:01:16.843Z,4.03
2018-07-14T08:03:44.295Z,3.70
2018-07-14T08:06:11.728Z,4.17
2018-07-14T08:08:39.146Z,3.77
2018-07-14T08:11:06.587Z,4.10
2018-07-14T08:13:34.067Z,3.95
2018-07-14T08:16:01.590Z,4.00
2018-07-14T08:18:29.008Z,4.67
2018-07-14T08:20:56.431Z,4.00
2018-07-14T08:23:23.855Z,4.33
2018-07-14T08:25:51.253Z,4.17
2018-07-14T08:28:18.823Z,4.10
2018-07-14T08:30:46.536Z,3.95
2018-07-14T08:33:13.987Z,3.98
2018-07-14T08:35:41.438Z,4.40
2018-07-14T08:38:08.967Z,4.00
2018-07-14T08:40:36.775Z,3.98
2018-07-14T08:43:05.266Z,4.12
2018-07-14T08:45:32.671Z,4.15
2018-07-14T08:48:00.083Z,4.20
2018-07-14T08:50:28.081Z,4.20
2018-07-14T08:52:55.487Z,4.10
2018-07-14T08:55:22.942Z,4.25
2018-07-14T08:57:50.412Z,4.00
2018-07-14T09:00:18.147Z,4.42
2018-07-14T09:02:45.581Z,4.28
2018-07-14T09:05:13.475Z,4.00
2018-07-14T09:07:40.882Z,4.10
2018-07-14T09:10:08.883Z,4.08
2018-07-14T09:12:36.404Z,3.90
2018-07-14T09:15:04.112Z,4.40
2018-07-14T09:17:32.602Z,3.60
2018-07-14T09:20:00.367Z,3.92
2018-07-14T09:22:28.380Z,3.75
2018-07-14T09:24:55.811Z,3.52
2018-07-14T09:27:23.232Z,3.87
2018-07-14T09:29:50.808Z,3.40
2018-07-14T09:32:18.193Z,3.77
2018-07-14T09:34:45.651Z,3.20
2018-07-14T09:37:13.182Z,3.80
2018-07-14T09:39:40.617Z,3.27
2018-07-14T09:42:08.319Z,3.70
2018-07-14T09:44:35.787Z,3.62
2018-07-14T09:47:03.215Z,3.58
2018-07-14T09:49:30.736Z,3.20
2018-07-14T09:51:58.483Z,3.10
2018-07-14T09:54:25.895Z,3.22
2018-07-14T09:56:54.019Z,3.27
2018-07-14T09:59:21.403Z,3.10
2018-07-14T10:01:48.799Z,2.87
2018-07-14T10:04:16.376Z,3.02
2018-07-14T10:06:44.519Z,3.10
2018-07-14T10:09:11.979Z,3.30
2018-07-14T10:11:39.466Z,3.10
2018-07-14T10:14:06.895Z,3.05
2018-07-14T10:16:34.367Z,3.10
2018-07-14T10:19:03.071Z,3.08
2018-07-14T10:21:30.456Z,2.70
2018-07-14T10:23:57.867Z,2.62
2018-07-14T10:26:25.322Z,3.00
2018-07-14T10:28:52.924Z,3.08
2018-07-14T10:31:20.292Z,3.15
2018-07-14T10:33:47.751Z,3.35
2018-07-14T10:36:15.148Z,3.10
2018-07-14T10:38:42.861Z,3.25
2018-07-14T10:41:10.243Z,3.20
2018-07-14T10:43:37.699Z,2.87
2018-07-14T10:46:05.291Z,2.60
2018-07-14T10:48:32.771Z,2.65
2018-07-14T10:51:00.291Z,2.45
2018-07-14T10:53:27.755Z,2.30
2018-07-14T10:55:55.303Z,2.10
2018-07-14T10:58:22.697Z,2.22
2018-07-14T11:00:50.158Z,1.95
2018-07-14T11:03:17.631Z,2.17
2018-07-14T11:05:45.811Z,1.70
2018-07-14T11:08:13.597Z,1.82
2018-07-14T11:10:41.304Z,1.70
2018-07-14T11:13:08.807Z,1.80
2018-07-14T11:15:36.936Z,1.80
2018-07-14T11:18:05.219Z,1.90
2018-07-14T11:20:32.639Z,1.80
2018-07-14T11:23:00.032Z,1.90
2018-07-14T11:25:27.584Z,1.98
2018-07-14T11:27:55.504Z,1.70
2018-07-14T11:30:23.411Z,2.10
2018-07-14T11:32:50.882Z,1.98
2018-07-14T11:35:18.367Z,1.92
2018-07-14T11:37:46.632Z,1.80
2018-07-14T11:40:14.051Z,1.77
2018-07-14T11:42:41.615Z,1.60
2018-07-14T11:45:09.038Z,1.70
2018-07-14T11:47:36.618Z,1.70
2018-07-14T11:50:04.094Z,1.87
2018-07-14T11:52:31.854Z,1.80
2018-07-14T11:54:59.543Z,1.62
2018-07-14T11:57:27.271Z,1.77
2018-07-14T11:59:54.771Z,1.70
2018-07-14T12:02:22.815Z,2.00
2018-07-14T12:04:50.332Z,1.80
2018-07-14T12:07:18.068Z,1.77
2018-07-14T12:09:45.644Z,1.75
2018-07-14T12:12:13.068Z,1.80
2018-07-14T12:14:41.659Z,2.10
2018-07-14T12:17:09.139Z,2.10
2018-07-14T12:19:36.560Z,2.00
2018-07-14T12:22:03.976Z,2.25
2018-07-14T12:24:31.453Z,2.35
2018-07-14T12:26:59.237Z,2.33
2018-07-14T12:29:27.591Z,2.20
2018-07-14T12:31:55.056Z,2.40
2018-07-14T12:34:22.586Z,2.22
2018-07-14T12:36:49.976Z,1.95
2018-07-14T12:39:17.444Z,2.20
2018-07-14T12:41:44.882Z,2.22
2018-07-14T12:44:12.393Z,2.20
2018-07-14T12:46:40.483Z,2.10
2018-07-14T12:49:07.939Z,2.10
2018-07-14T12:51:35.647Z,2.22
2018-07-14T12:54:03.427Z,2.12
2018-07-14T12:56:30.859Z,2.00
2018-07-14T12:58:59.058Z,2.20
2018-07-14T13:01:26.702Z,2.30
2018-07-14T13:03:54.131Z,2.37
2018-07-14T13:06:21.599Z,2.40
2018-07-14T13:08:49.675Z,2.27
2018-07-14T13:11:17.128Z,2.37
2018-07-14T13:13:44.575Z,2.30
2018-07-14T13:16:12.689Z,2.20
2018-07-14T13:18:40.103Z,2.22
2018-07-14T13:21:07.704Z,4.22
2018-07-14T13:23:35.333Z,9.10
2018-07-14T13:26:02.804Z,11.12
2018-07-14T13:28:30.231Z,2.40
2018-07-14T13:30:57.663Z,2.72
2018-07-14T13:33:25.157Z,2.40
2018-07-14T13:35:52.572Z,2.20
2018-07-14T13:38:21.015Z,2.10
2018-07-14T13:40:48.415Z,2.30
2018-07-14T13:43:16.511Z,2.40
2018-07-14T13:45:43.999Z,2.12
2018-07-14T13:48:11.430Z,2.92
2018-07-14T13:50:38.975Z,2.05
2018-07-14T13:53:07.314Z,2.00
2018-07-14T13:55:34.811Z,2.22
2018-07-14T13:58:02.229Z,2.10
2018-07-14T14:00:29.989Z,2.30
2018-07-14T14:02:57.445Z,2.00
2018-07-14T14:05:24.867Z,2.35
2018-07-14T14:07:52.317Z,2.05
2018-07-14T14:10:19.775Z,1.98
2018-07-14T14:12:47.300Z,2.20
2018-07-14T14:15:15.082Z,2.35
2018-07-14T14:17:42.854Z,2.55
2018-07-14T14:20:10.256Z,2.12
2018-07-14T14:22:38.005Z,2.40
2018-07-14T14:25:05.684Z,2.27
2018-07-14T14:27:33.205Z,2.10
2018-07-14T14:30:00.667Z,1.82
2018-07-14T14:32:28.121Z,2.10
2018-07-14T14:34:55.508Z,2.00
2018-07-14T14:37:23.066Z,2.10
2018-07-14T14:39:50.503Z,1.80
2018-07-14T14:42:17.887Z,2.10
2018-07-14T14:44:45.339Z,1.77
2018-07-14T14:47:12.946Z,1.98
2018-07-14T14:49:40.627Z,2.05
2018-07-14T14:52:08.047Z,2.25
2018-07-14T14:54:35.847Z,1.82
2018-07-14T14:57:03.681Z,2.08
2018-07-14T14:59:31.087Z,2.00
2018-07-14T15:01:59.170Z,2.15
2018-07-14T15:04:26.848Z,2.00
2018-07-14T15:06:54.407Z,1.90
2018-07-14T15:09:21.890Z,1.82
2018-07-14T15:11:49.267Z,1.77
2018-07-14T15:14:16.797Z,1.82
2018-07-14T15:16:44.199Z,1.90
2018-07-14T15:19:11.633Z,1.90
2018-07-14T15:21:39.136Z,1.77
2018-07-14T15:24:07.101Z,1.77
2018-07-14T15:26:34.539Z,1.65
2018-07-14T15:29:02.119Z,1.80
2018-07-14T15:31:29.529Z,1.60
2018-07-14T15:33:57.104Z,1.90
2018-07-14T15:36:24.897Z,1.62
2018-07-14T15:38:52.326Z,1.80
2018-07-14T15:41:21.385Z,1.60
2018-07-14T15:43:48.779Z,1.85
2018-07-14T15:46:16.692Z,1.80
2018-07-14T15:48:44.302Z,2.10
2018-07-14T15:51:12.156Z,2.10
2018-07-14T15:53:39.564Z,2.30
2018-07-14T15:56:07.316Z,2.10
2018-07-14T15:58:35.196Z,2.27
2018-07-14T16:01:02.919Z,2.00
2018-07-14T16:03:30.318Z,1.80
2018-07-14T16:05:58.306Z,2.00
2018-07-14T16:08:25.725Z,2.20
2018-07-14T16:10:53.759Z,2.10
2018-07-14T16:13:21.263Z,2.08
2018-07-14T16:15:48.688Z,2.20
2018-07-14T16:18:16.142Z,2.10
2018-07-14T16:20:43.573Z,2.05
2018-07-14T16:23:11.062Z,2.20
2018-07-14T16:25:38.518Z,2.13
2018-07-14T16:28:05.935Z,1.90
2018-07-14T16:30:33.521Z,2.20
2018-07-14T16:33:00.913Z,1.90
2018-07-14T16:35:28.393Z,1.93
2018-07-14T16:37:55.799Z,1.93
2018-07-14T16:40:23.265Z,1.93
2018-07-14T16:42:50.823Z,1.80
2018-07-14T16:45:18.216Z,1.90
2018-07-14T16:47:45.663Z,1.70
2018-07-14T16:50:13.139Z,1.93
2018-07-14T16:52:41.176Z,2.10
2018-07-14T16:55:08.983Z,2.00
2018-07-14T16:57:36.491Z,2.07
2018-07-14T17:00:04.522Z,1.90
2018-07-14T17:02:31.935Z,2.10
2018-07-14T17:04:59.399Z,2.10
2018-07-14T17:07:26.827Z,1.80
2018-07-14T17:09:54.227Z,1.80
2018-07-14T17:12:21.666Z,1.98
2018-07-14T17:14:49.297Z,1.70
2018-07-14T17:17:16.698Z,1.70
2018-07-14T17:19:44.119Z,1.65
2018-07-14T17:22:12.155Z,1.50
2018-07-14T17:24:39.728Z,1.90
2018-07-14T17:27:07.440Z,1.70
2018-07-14T17:29:34.948Z,1.65
2018-07-14T17:32:02.379Z,2.00
2018-07-14T17:34:30.479Z,1.98
2018-07-14T17:36:57.852Z,1.90
2018-07-14T17:39:25.227Z,2.10
2018-07-14T17:41:53.111Z,1.87
2018-07-14T17:44:20.544Z,2.17
2018-07-14T17:46:48.000Z,1.67
2018-07-14T17:49:15.411Z,1.98
2018-07-14T17:51:43.081Z,1.90
2018-07-14T17:54:10.665Z,2.12
2018-07-14T17:56:38.082Z,1.80
2018-07-14T17:59:05.878Z,2.30
2018-07-14T18:01:33.342Z,2.27
2018-07-14T18:04:00.756Z,2.10
2018-07-14T18:06:28.256Z,2.30
2018-07-14T18:08:55.706Z,2.22
2018-07-14T18:11:23.517Z,2.00
2018-07-14T18:13:50.935Z,2.22
2018-07-14T18:16:18.358Z,2.10
2018-07-14T18:18:45.875Z,3.02
2018-07-14T18:21:13.287Z,2.10
2018-07-14T18:23:40.759Z,2.00
2018-07-14T18:26:08.368Z,2.10
2018-07-14T18:28:36.024Z,2.37
2018-07-14T18:31:04.032Z,2.00
2018-07-14T18:33:31.471Z,2.17
2018-07-14T18:35:59.080Z,2.27
2018-07-14T18:38:26.835Z,2.00
2018-07-14T18:40:54.260Z,2.05
2018-07-14T18:43:21.761Z,1.80
2018-07-14T18:45:49.265Z,2.20
2018-07-14T18:48:17.015Z,2.20
2018-07-14T18:50:45.052Z,2.15
2018-07-14T18:53:12.594Z,2.10
2018-07-14T18:55:40.024Z,2.00
2018-07-14T18:58:07.440Z,2.10
2018-07-14T19:00:35.267Z,2.00
2018-07-14T19:03:02.686Z,2.30
2018-07-14T19:05:30.188Z,2.07
2018-07-14T19:07:57.599Z,2.07
2018-07-14T19:10:25.516Z,2.27
2018-07-14T19:12:53.091Z,2.20
2018-07-14T19:15:20.699Z,2.03
2018-07-14T19:17:48.754Z,2.20
2018-07-14T19:20:16.463Z,2.10
2018-07-14T19:22:43.843Z,2.20
2018-07-14T19:25:11.318Z,2.33
2018-07-14T19:27:38.813Z,2.30
2018-07-14T19:30:06.834Z,2.20
2018-07-14T19:32:34.612Z,2.00
2018-07-14T19:35:02.847Z,1.90
2018-07-14T19:37:30.155Z,2.47
2018-07-14T19:39:57.654Z,2.40
2018-07-14T19:42:25.363Z,2.30
2018-07-14T19:44:53.099Z,2.30
2018-07-14T19:47:20.547Z,2.30
2018-07-14T19:49:48.079Z,2.20
2018-07-14T19:52:15.473Z,2.53
2018-07-14T19:54:43.011Z,2.50
2018-07-14T19:57:10.453Z,2.37
2018-07-14T19:59:37.853Z,2.70
2018-07-14T20:02:05.610Z,2.50
2018-07-14T20:04:33.402Z,2.67
2018-07-14T20:07:00.854Z,2.87
2018-07-14T20:09:28.232Z,2.50
2018-07-14T20:11:55.663Z,2.67
2018-07-14T20:14:23.812Z,2.33
2018-07-14T20:16:51.263Z,2.40
2018-07-14T20:19:18.759Z,2.50
2018-07-14T20:21:46.153Z,2.63
2018-07-14T20:24:14.111Z,2.43
2018-07-14T20:26:41.527Z,2.50
2018-07-14T20:29:08.931Z,2.57
2018-07-14T20:31:36.311Z,2.70
2018-07-14T20:34:04.471Z,2.60
2018-07-14T20:36:31.891Z,2.63
2018-07-14T20:38:59.343Z,2.73
2018-07-14T20:41:26.892Z,2.60
2018-07-14T20:43:54.258Z,2.70
2018-07-14T20:46:22.262Z,2.73
2018-07-14T20:48:49.674Z,2.77
2018-07-14T20:51:17.043Z,2.30
2018-07-14T20:53:44.423Z,2.67
2018-07-14T20:56:11.830Z,2.70
2018-07-14T20:58:39.357Z,2.83
2018-07-14T21:01:07.485Z,2.80
2018-07-14T21:03:35.141Z,2.67
2018-07-14T21:06:02.664Z,2.80
2018-07-14T21:08:30.112Z,2.83
2018-07-14T21:10:57.558Z,2.73
2018-07-14T21:13:25.555Z,3.00
2018-07-14T21:15:52.957Z,3.27
2018-07-14T21:18:20.399Z,2.70
2018-07-14T21:20:48.676Z,2.73
2018-07-14T21:23:16.606Z,2.87
2018-07-14T21:25:44.091Z,2.80
2018-07-14T21:28:11.819Z,3.13
2018-07-14T21:30:39.380Z,2.80
2018-07-14T21:33:06.835Z,3.27
2018-07-14T21:35:34.220Z,3.47
2018-07-14T21:38:01.653Z,2.97
2018-07-14T21:40:29.360Z,2.83
2018-07-14T21:42:56.899Z,3.40
2018-07-14T21:45:24.345Z,3.30
2018-07-14T21:47:51.827Z,3.30
2018-07-14T21:50:19.659Z,3.23
2018-07-14T21:52:47.039Z,3.23
2018-07-14T21:55:14.499Z,3.30
2018-07-14T21:57:41.939Z,3.00
2018-07-14T22:00:10.827Z,3.47
2018-07-14T22:02:38.311Z,3.50
2018-07-14T22:05:05.918Z,3.20
2018-07-14T22:07:33.324Z,3.30
2018-07-14T22:10:00.760Z,3.43
2018-07-14T22:12:28.160Z,3.20
2018-07-14T22:14:55.700Z,3.60
2018-07-14T22:17:23.148Z,3.33
2018-07-14T22:19:51.584Z,3.17
2018-07-14T22:22:18.968Z,3.20
2018-07-14T22:24:46.443Z,3.50
2018-07-14T22:27:13.948Z,3.17
2018-07-14T22:29:41.408Z,3.47
2018-07-14T22:32:08.788Z,3.33
2018-07-14T22:34:36.236Z,3.20
2018-07-14T22:37:04.022Z,3.83
2018-07-14T22:39:31.470Z,3.40
2018-07-14T22:41:58.879Z,3.50
2018-07-14T22:44:26.288Z,3.60
2018-07-14T22:46:53.727Z,3.80
2018-07-14T22:49:21.376Z,3.63
2018-07-14T22:51:48.779Z,3.47
2018-07-14T22:54:16.535Z,3.40
2018-07-14T22:56:43.975Z,3.40
2018-07-14T22:59:11.345Z,3.60
2018-07-14T23:01:38.904Z,4.10
2018-07-14T23:04:06.287Z,3.70
2018-07-14T23:06:33.819Z,3.63
2018-07-14T23:09:01.264Z,3.60
2018-07-14T23:11:28.680Z,3.93
2018-07-14T23:13:56.086Z,3.70
2018-07-14T23:16:23.491Z,3.60
2018-07-14T23:18:51.083Z,3.50
2018-07-14T23:21:19.215Z,3.67
2018-07-14T23:23:47.229Z,4.00
2018-07-14T23:26:15.207Z,3.70
2018-07-14T23:28:42.837Z,3.70
2018-07-14T23:31:10.403Z,3.70
2018-07-14T23:33:37.975Z,3.80
2018-07-14T23:36:05.735Z,4.03
2018-07-14T23:38:33.240Z,3.90
2018-07-14T23:41:00.775Z,3.80
2018-07-14T23:43:28.155Z,3.90
2018-07-14T23:45:55.583Z,3.87
2018-07-14T23:48:23.015Z,3.83
2018-07-14T23:50:50.402Z,3.90
2018-07-14T23:53:17.987Z,3.90
2018-07-14T23:55:45.481Z,4.00
2018-07-14T23:58:13.858Z,3.60
